NWS Home NWS Lubbock West Texas Mesonet Three hour changes as of 0842 PM, Sun Mar 29, 2020

Latest   N   C   S   Daily Sum   3hrΔ   24hrΔ   Soil Data 
Site Map   24hr Precip   72hr Precip   Google Plot


Station Time of Last Temp Now Temp 3h ago Delta-T Dewpoint Now Dewpoint 3hr ago Delta-Td 3hr Press Change (mB)
Reese Center  08:35 PM 60.4 65.8 -5.4 24.2 23.2 1.1 0
Abernathy  08:35 PM 59 65.7 -6.7 33.4 28.9 4.5 -0.1
Plainview  08:35 PM 58 66.1 -8.1 34.4 25.9 8.6 0.1
Tahoka  08:35 PM 60.2 67.3 -7.1 24.9 25.4 -0.5 0.4
Slaton  08:35 PM 58.4 66.4 -8 36.3 29.7 6.6 0.2
Levelland  08:35 PM 59.8 66.8 -7 26.1 20.9 5.2 0.1
Roaring Springs  08:35 PM 60.2 66.8 -6.6 40.4 34.5 5.9 0.2
Floydada  08:35 PM 56.9 66.7 -9.8 34.1 25.5 8.5 0
Ralls  08:35 PM 59.7 65.4 -5.7 31 28.5 2.6 -0.1
Brownfield  08:35 PM 59.4 67.6 -8.1 28.2 24.3 4 0.3
Muleshoe  08:35 PM 59.1 67.1 -8 23.6 15.8 7.8 0.1
Morton  08:35 PM 60.9 66.1 -5.1 20.6 15.4 5.1 -0.3
Comanche Springs  08:35 PM 61.7 67.3 -5.7 44.1 39.9 4.2 -0.1
O'Donnell  08:35 PM 60.6 67.5 -6.9 25.7 29.5 -3.8 0.2
Seagraves  08:35 PM 60.2 67.9 -7.7 24.4 24.3 0 0.2
Amherst  08:35 PM 59.3 67 -7.8 25.4 19.5 5.9 0.1
Plains  08:35 PM 58.6 66.1 -7.5 25.1 24.9 0.2 0
Lamesa  08:35 PM 59.9 67.7 -7.8 28.2 23.5 4.7 -0.2
Hart  08:35 PM 56.4 65.6 -9.2 29.5 19.4 10.2 0
Friona  08:35 PM 55.4 66.5 -11 24.2 21.8 2.4 0.3
Dimmitt  08:35 PM 55.9 65.5 -9.6 30.3 22.1 8.2 0.4
Tulia  06:50 PM 62.9 66.3 -3.4 27.4 26.7 0.7 -1
Silverton  08:35 PM 56.7 66.6 -10 35.7 24.2 11.5 0.4
Post  08:35 PM 60.4 69.9 -9.5 36.4 22.3 14.1 0.4
Seminole  08:35 PM 58.8 68 -9.2 23.4 21.1 2.3 0
Gail  08:35 PM 60 68.3 -8.2 28.8 25 3.8 0.2
White River Lake  08:35 PM 59.6 67.9 -8.3 35.9 33.4 2.5 0.6
Graham  08:35 PM 60.9 67.6 -6.7 26.9 22.5 4.4 0.3
Sundown  08:35 PM 58 66.7 -8.7 22 17.8 4.2 0
Anton  08:35 PM 59.5 65.6 -6 27.4 24.2 3.2 0.2
Fluvanna  08:35 PM 61 67.4 -6.4 29.8 27.5 2.3 0.1
Spur  08:35 PM 59.5 69 -9.5 37.1 34.5 2.6 0.4
Northwest Lubbock  08:35 PM 61.6 66.4 -4.7 26 24.4 1.5 0.2
Guthrie  08:35 PM 60 69.2 -9.2 37.5 31.6 5.9 0.2
Clarendon  08:35 PM 59.1 66.5 -7.4 33.2 30.2 3 0
Paducah  08:35 PM 61.8 68 -6.2 41.1 37.9 3.3 -0.2
Snyder  08:35 PM 61.7 68.7 -7 26.6 26.7 -0.1 0.2
Memphis  08:35 PM 60.7 69.6 -9 39.2 30.2 9 0.4
Jayton  08:35 PM 62 68.7 -6.8 41.7 32.5 9.2 0.1
Pampa  08:35 PM 56.1 63.8 -7.7 31 29.5 1.4 0.1
Aspermont  08:35 PM 62.7 69.6 -6.9 43 38.5 4.5 0.1
Hereford  08:35 PM 57.1 65.9 -8.8 27.8 22.6 5.2 0.1
Goodlett  08:35 PM 60.3 67.6 -7.3 44.1 38.4 5.7 -0.3
McLean  08:35 PM 57.4 64.8 -7.4 35.9 28.3 7.6 0.1
Denver City  08:35 PM 58.6 66.2 -7.6 22.5 18.7 3.9 0.1
Lake Alan Henry  08:35 PM 61.6 68.9 -7.3 37.1 35 2.2 0.4
Wolfforth  08:35 PM 58.2 67 -8.8 26.2 24.6 1.6 0.3
Andrews  08:35 PM 61.9 68.7 -6.8 29.1 25.9 3.2 -0.5
Turkey  08:35 PM 60.7 68.2 -7.5 38.3 32.6 5.7 0.4
Childress  08:35 PM 59.8 69.9 -10.1 41.1 34.8 6.3 0.2
Tatum  08:35 PM 57.6 65.2 -7.7 25.6 19.3 6.3 -0.4
Northfield  08:35 PM 60.5 69.6 -9.2 38.9 30.3 8.6 0.2
Dora  08:35 PM 57.6 65.1 -7.5 20.5 14 6.6 0
Northwest San Angelo  08:35 PM 65.9 71.9 -6 29.2 23.3 5.9 0.3
Saint Lawrence  08:35 PM 63.9 71.1 -7.3 28 26.9 1.1 0.5
Haskell  08:35 PM 62.9 69 -6 44.4 40.3 4 0.3
Wall  08:35 PM 64.4 71.2 -6.8 34.3 32.6 1.6 0.2
Seymour  08:35 PM 59 68.2 -9.2 47 46 1 0.1
Knox City  08:35 PM 60.7 68.8 -8 46.8 46.6 0.2 0.2
Guadalupe Mtns Park  08:35 PM 55.3 60.8 -5.6 20 15.8 4.2 0
Caprock Canyons   08:35 PM 56.9 68.1 -11.2 36.5 27.3 9.2 0.6
Odell  08:30 PM 61.4 67.2 -5.7 44.8 41.8 3 -0.3
Coyanosa  08:35 PM 68.3 78.5 -10.1 32.7 33.3 -0.7 0.2
Big Lake  08:35 PM 66 71.7 -5.7 32.4 26.9 5.5 0.6
Junction  08:35 PM 70.3 74.3 -4 36.4 37.4 -1 1
Hobbs  08:35 PM 60.9 66.8 -5.8 24.3 18.7 5.6 -0.2
Canadian  08:35 PM 56.8 68.3 -11.5 31.2 27 4.2 0.5
Palo Duro Canyon State Park Rim  08:35 PM 60.8 68.6 -7.8 24.8 23.3 1.5 0.1
Bootleg  08:35 PM 55.4 64.7 -9.3 22.4 19.3 3.1 0.3
Sterling City  08:35 PM 63.2 68.5 -5.3 30.8 32.7 -1.9 0.1
Mertzon  08:35 PM 63.6 70.3 -6.7 31 29 1.9 0.4
Persimmon Gap  08:35 PM 72.2 82.8 -10.6 32.4 40.7 -8.3 1
Weinert  08:35 PM 63 69.5 -6.5 43.4 39 4.4 0.4
Claude 12 Southwest  08:35 PM 58.3 66.5 -8.1 30.7 26.6 4 0.2
Amarillo 7 South Southeast  08:35 PM 57.8 66.2 -8.4 25.3 26.3 -1 0.1
Umbarger  08:35 PM 56.1 66.4 -10.4 27.9 23.9 4 0.3
Lomax  08:35 PM 63.4 70.6 -7.2 31.8 24.7 7.1 0.4
Amarillo 9 North Northeast  08:35 PM 57.7 67.2 -9.5 25.4 22.6 2.8 0
Aiken  08:35 PM 57.9 67 -9 33.9 26.3 7.6 0.1
Sweetwater  08:35 PM 61.3 66.6 -5.2 32.8 29.7 3.1 -0.1
Dozier  08:35 PM 59.8 67.7 -7.9 39.3 32.6 6.7 0.3
Amarillo 15 North Northwest  08:35 PM 59.5 67 -7.6 25.4 23.4 2 0.1
Menard  08:35 PM 61.8 67.9 -6.2 41.2 37.7 3.5 0
Tarzan  08:35 PM 62.7 69 -6.3 31.1 23.6 7.5 -0.2
Goodnight  08:35 PM 58.5 65.9 -7.4 33 33.1 -0.1 0.1
Boys Ranch   08:35 PM 61 68.6 -7.6 24.9 25.3 -0.4 0.1
Fort McKavett  08:35 PM 61.9 70.6 -8.7 39.5 36 3.5 0.3
Fort Chadbourne  08:35 PM 63.4 68.1 -4.6 38.3 30.5 7.8 -0.1
Palo Duro Canyon State Park Floor  08:35 PM 63.7 70.7 -7 27.6 24.1 3.5 0.3
Fort Lancaster  03:15 AM 46.3 46.6 -0.3 16.1 13.6 2.4 1.5
Dell City 1N  08:35 PM 60.2 69.4 -9.2 36.1 24.7 11.4 -0.1
Clyde  08:35 PM 61.6 68.3 -6.8 44 35.8 8.3 0.2
Snyder SSW  08:35 PM 60.6 68.7 -8.1 31.1 27.5 3.6 0.1
Panhandle  08:35 PM 56.6 65.2 -8.7 31.3 27 4.3 0.2
Vigo Park  08:35 PM 55.9 67 -11 30.4 23.7 6.7 0.2
Welch  08:35 PM 58.3 69.3 -11 30.1 26 4.2 0.2
Throckmorton  08:35 PM 61.3 68 -6.7 45.8 42.3 3.5 0.6
Sierra Blanca  08:35 PM 66.1 72.2 -6.1 23.7 15.1 8.6 -0.3
Fort Lewis CO  05:40 PM 45.1 41.4 3.7 19.7 22.2 -2.5 -2
New Home  08:35 PM 58.3 67.2 -8.9 25.2 26 -0.8 0.2
McCamey  08:35 PM 68.6 74.9 -6.4 27.8 34.2 -6.4 1.1
Stamford  08:35 PM 61.4 68 -6.6 48.4 43.5 4.9 0.2
Crowell  08:35 PM 62.2 68.3 -6.1 45.2 42.4 2.8 -0
Stinnett  08:35 PM 58.5 66.3 -7.8 30.6 26.7 3.9 0.2
Colorado City  08:35 PM 63.6 70.2 -6.6 30.1 25 5 0.2
Happy  08:35 PM 56.7 66 -9.3 29.8 25.8 4 0.2
Endee  08:35 PM 58.7 66.8 -8.1 22.7 22.1 0.6 0.4
JA Ranch  08:35 PM 58.2 68.2 -10 35.4 32.7 2.7 0.4
Adrian  08:35 PM 53.4 63.8 -10.4 24.7 22.3 2.4 0.3
Lesley  08:35 PM 61.7 71.3 -9.6 38.4 31.9 6.5 0.4
Earth  08:35 PM 59.1 67.6 -8.5 25.8 16.9 8.9 0.1
Van Horn  08:35 PM 67.9 78.2 -10.3 23.6 23.9 -0.2 0.2
Rotan  08:35 PM 63.2 67.4 -4.1 31.6 39.8 -8.1 0
Fritch  08:35 PM 58.7 67.8 -9.2 31.1 25.3 5.8 0
Estelline  08:35 PM 60.8 70.7 -9.9 39 32.9 6.2 0.5
Crane  08:35 PM 69.5 74.4 -4.9 28.8 33.6 -4.9 0.6
Hackberry  08:35 PM 61.5 67.9 -6.4 44.5 42.6 1.9 0.1
Romero 11SSW  08:35 PM 58.5 67 -8.6 21.8 20.1 1.7 0
Palo Duro Reservoir 1NW  08:35 PM 56.5 65.9 -9.4 29.5 24.8 4.7 -0.1
South Plains 3ENE  08:35 PM 55.6 67.1 -11.5 36.1 24.3 11.8 0.3
Lake McClellan 2NW  08:35 PM 58 64.7 -6.7 30.5 28 2.5 0.2
Segovia 7SSW  08:35 PM 67.5 74.5 -7.1 36.6 32.9 3.7 0.9
Castolon 1NW BBNP  08:35 PM 81.1 85.8 -4.7 44.9 46.3 -1.4 0.2
Smyer  08:35 PM 59.9 66.1 -6.2 26 24.7 1.3 0
Doole 3WNW  08:35 PM 64 70.3 -6.3 40.7 36.4 4.3 -0.1
Stratford  08:35 PM 52.3 64.7 -12.4 26.1 24.5 1.6 -0.3
Truscott  08:35 PM 62.6 69.2 -6.6 44.8 44.5 0.3 0.2
Hefner  08:35 PM 61.6 68.6 -7 45.7 44.6 1.1 0.3
Kent I10-I20 Split  08:35 PM 67.6 75 -7.4 31.8 24.8 7.1 -0.3
Olton  08:35 PM 55.8 66 -10.2 30.1 21.3 8.8 0.1
McAdoo  08:35 PM 59.4 64.5 -5.1 32.1 33.3 -1.2 0.5

West Texas Mesonet Home   Site Map/Menu  NWS Lubbock Soil Data  Daily Summary Page  24hr Precip  72hr Precip  Google Plot